Time;durP1;ratioP1;P1;durP2;ratioP2;P2;SDS_P1;SDS_P2;PMS_P1;PMS_P2;Temp;Humidity;BMP_temperature;BMP_pressure;BME280_temperature;BME280_humidity;BME280_pressure;Samples;Min_cycle;Max_cycle;Signal;HPM_P1;HPM_P2
2022/01/18 00:00:01;;;;;;;;;;;5.80;99.70;;;;;;5050522;28;19917;-69
2022/01/18 00:02:26;;;;;;;;;;;5.80;99.70;;;;;;5058825;28;19919;-69
2022/01/18 00:04:52;;;;;;;;;;;5.80;99.70;;;;;;5051726;28;19916;-69
2022/01/18 00:07:17;;;;;;;;;;;5.80;99.70;;;;;;5032602;28;20324;-69
2022/01/18 00:09:43;;;;;;;;;;;5.80;99.70;;;;;;5049949;28;20389;-69
2022/01/18 00:15:15;;;;;;;;;;;5.80;99.70;;;;;;5050073;28;19920;-69
2022/01/18 00:17:51;;;;;;;;;;;5.80;99.70;;;;;;5050979;28;19913;-69
2022/01/18 00:20:22;;;;;;;;;;;5.80;99.70;;;;;;5050299;28;19913;-69
2022/01/18 00:22:47;;;;;;;;;;;5.80;99.70;;;;;;5031985;28;19917;-69
2022/01/18 00:25:13;;;;;;;;;;;5.80;99.70;;;;;;5047690;28;20435;-69
2022/01/18 00:27:38;;;;;;;;;;;5.80;99.70;;;;;;5046505;28;19920;-69
2022/01/18 00:30:50;;;;;;;;;;;5.80;99.70;;;;;;5033877;28;20015;-69
2022/01/18 00:35:33;;;;;;;;;;;5.80;99.70;;;;;;5048082;28;20344;-69
2022/01/18 00:37:59;;;;;;;;;;;5.80;99.70;;;;;;5029641;28;20007;-69
2022/01/18 00:40:25;;;;;;;;;;;5.80;99.70;;;;;;5051289;28;20023;-69
2022/01/18 00:42:51;;;;;;;;;;;5.80;99.70;;;;;;5029226;28;20373;-69
2022/01/18 00:45:16;;;;;;;;;;;5.80;99.70;;;;;;5034703;28;20012;-69
2022/01/18 00:47:42;;;;;;;;;;;5.80;99.70;;;;;;5046118;28;20012;-69
2022/01/18 00:50:09;;;;;;;;;;;5.80;99.70;;;;;;5052592;28;19923;-69
2022/01/18 00:52:39;;;;;;;;;;;5.70;99.90;;;;;;5045683;28;19963;-69
2022/01/18 00:55:05;;;;;;;;;;;5.80;99.70;;;;;;5049230;28;19921;-70
2022/01/18 00:57:31;;;;;;;;;;;5.80;99.70;;;;;;5028644;28;19916;-69
2022/01/18 00:59:56;;;;;;;;;;;5.80;99.70;;;;;;5061722;28;19908;-69
2022/01/18 01:02:22;;;;;;;;;;;5.80;99.70;;;;;;5048920;28;19912;-69
2022/01/18 01:04:48;;;;;;;;;;;5.80;99.70;;;;;;5049767;28;20500;-69
2022/01/18 01:07:15;;;;;;;;;;;5.70;99.70;;;;;;5049895;28;19955;-69
2022/01/18 01:09:41;;;;;;;;;;;5.80;99.70;;;;;;5050865;28;20003;-69
2022/01/18 01:12:06;;;;;;;;;;;5.80;99.70;;;;;;5052226;28;19999;-69
2022/01/18 01:14:33;;;;;;;;;;;5.80;99.70;;;;;;5049380;28;19935;-69
2022/01/18 01:33:18;;;;;;;;;;;5.80;99.70;;;;;;5051661;28;20412;-69
2022/01/18 01:36:00;;;;;;;;;;;5.80;99.70;;;;;;5049231;28;19909;-69
2022/01/18 01:46:30;;;;;;;;;;;5.70;99.70;;;;;;5053784;28;20288;-69
2022/01/18 01:48:58;;;;;;;;;;;5.70;99.70;;;;;;5050494;28;19917;-69
2022/01/18 01:51:29;;;;;;;;;;;5.70;99.70;;;;;;5039109;28;19919;-69
2022/01/18 01:54:03;;;;;;;;;;;5.80;99.70;;;;;;5053624;28;19921;-69
2022/01/18 01:56:29;;;;;;;;;;;5.80;99.70;;;;;;5049952;28;19912;-69
2022/01/18 01:58:55;;;;;;;;;;;5.70;99.70;;;;;;5054219;28;20274;-69
2022/01/18 02:01:21;;;;;;;;;;;5.70;99.70;;;;;;5047154;28;19912;-69
2022/01/18 02:03:47;;;;;;;;;;;5.70;99.70;;;;;;5036646;28;20321;-69
2022/01/18 02:06:12;;;;;;;;;;;5.70;99.70;;;;;;5049345;28;20362;-69
2022/01/18 02:08:38;;;;;;;;;;;5.70;99.60;;;;;;5049058;28;19965;-69
2022/01/18 02:11:04;;;;;;;;;;;5.80;99.70;;;;;;5048301;28;19948;-69
2022/01/18 02:13:31;;;;;;;;;;;5.70;99.70;;;;;;5053036;28;19985;-69
2022/01/18 02:22:10;;;;;;;;;;;5.70;99.60;;;;;;5045269;28;19943;-69
2022/01/18 02:24:05;;;;;;;;;;;5.70;99.70;;;;;;5043881;28;19936;-69
2022/01/18 02:26:31;;;;;;;;;;;5.70;99.60;;;;;;5028606;28;19913;-69
2022/01/18 02:29:04;;;;;;;;;;;5.70;99.70;;;;;;5054038;28;19920;-69
2022/01/18 02:31:30;;;;;;;;;;;5.70;99.60;;;;;;5047337;28;19917;-69
2022/01/18 02:34:00;;;;;;;;;;;5.70;99.70;;;;;;5053427;28;19920;-69
2022/01/18 02:36:26;;;;;;;;;;;5.70;99.70;;;;;;5026235;28;20475;-69
2022/01/18 02:38:51;;;;;;;;;;;5.70;99.60;;;;;;5055625;28;19913;-69
2022/01/18 02:41:28;;;;;;;;;;;5.70;99.60;;;;;;5046832;28;19947;-69
2022/01/18 02:43:56;;;;;;;;;;;5.70;99.60;;;;;;5048110;28;19994;-69
2022/01/18 02:46:22;;;;;;;;;;;5.70;99.60;;;;;;5048078;28;20480;-69
2022/01/18 02:48:48;;;;;;;;;;;5.70;99.60;;;;;;5048678;28;19919;-69
2022/01/18 02:51:13;;;;;;;;;;;5.70;99.70;;;;;;5043494;28;19912;-69
2022/01/18 02:53:52;;;;;;;;;;;5.70;99.60;;;;;;5047524;28;19924;-69
2022/01/18 02:56:18;;;;;;;;;;;5.70;99.60;;;;;;5054189;28;19951;-69
2022/01/18 02:58:43;;;;;;;;;;;5.70;99.60;;;;;;5045702;28;19967;-69
2022/01/18 03:03:35;;;;;;;;;;;5.70;99.70;;;;;;5045364;28;20371;-69
2022/01/18 03:06:02;;;;;;;;;;;5.70;99.60;;;;;;5056084;28;20460;-69
2022/01/18 03:08:28;;;;;;;;;;;5.70;99.60;;;;;;5046363;28;19916;-69
2022/01/18 03:10:53;;;;;;;;;;;5.70;99.60;;;;;;5056202;28;19908;-69
2022/01/18 03:13:19;;;;;;;;;;;5.70;99.60;;;;;;5049799;28;19921;-69
2022/01/18 03:15:45;;;;;;;;;;;5.70;99.60;;;;;;5057127;28;19909;-69
2022/01/18 03:18:11;;;;;;;;;;;5.70;99.60;;;;;;5034153;28;19920;-69
2022/01/18 03:20:37;;;;;;;;;;;5.70;99.60;;;;;;5061872;28;20268;-69
2022/01/18 03:23:07;;;;;;;;;;;5.70;99.60;;;;;;5037814;28;19913;-69
2022/01/18 03:28:06;;;;;;;;;;;5.70;99.60;;;;;;5054064;28;19923;-69
2022/01/18 03:30:34;;;;;;;;;;;5.70;99.60;;;;;;5056856;28;19913;-69
2022/01/18 03:33:00;;;;;;;;;;;5.70;99.60;;;;;;5053451;28;19913;-69
2022/01/18 03:35:26;;;;;;;;;;;5.70;99.60;;;;;;5052171;28;20771;-69
2022/01/18 03:37:52;;;;;;;;;;;5.70;99.60;;;;;;5052933;28;19940;-69
2022/01/18 03:40:18;;;;;;;;;;;5.70;99.60;;;;;;5052626;28;19917;-69
2022/01/18 03:42:45;;;;;;;;;;;5.70;99.60;;;;;;5059752;28;20420;-69
2022/01/18 03:45:13;;;;;;;;;;;5.70;99.60;;;;;;5050948;28;20546;-69
2022/01/18 03:47:38;;;;;;;;;;;5.70;99.60;;;;;;5059635;28;19964;-69
2022/01/18 03:50:05;;;;;;;;;;;5.70;99.60;;;;;;5052345;28;19994;-69
2022/01/18 03:52:31;;;;;;;;;;;5.70;99.60;;;;;;5057258;28;19913;-69
2022/01/18 03:54:56;;;;;;;;;;;5.70;99.60;;;;;;5051552;28;19958;-69
2022/01/18 03:57:22;;;;;;;;;;;5.70;99.60;;;;;;5055484;28;19989;-69
2022/01/18 03:59:50;;;;;;;;;;;5.70;99.60;;;;;;5067448;28;20425;-69
2022/01/18 04:02:16;;;;;;;;;;;5.70;99.60;;;;;;5054360;28;19970;-69
2022/01/18 04:04:42;;;;;;;;;;;5.70;99.60;;;;;;5052803;28;20349;-69
2022/01/18 04:07:07;;;;;;;;;;;5.70;99.60;;;;;;5053892;28;20004;-69
2022/01/18 04:09:33;;;;;;;;;;;5.70;99.70;;;;;;5050205;28;21295;-69
2022/01/18 04:11:58;;;;;;;;;;;5.70;99.60;;;;;;5036557;28;19954;-69
2022/01/18 04:14:24;;;;;;;;;;;5.70;99.60;;;;;;5054249;28;19924;-69
2022/01/18 04:27:36;;;;;;;;;;;5.70;99.60;;;;;;5048192;28;20274;-69
2022/01/18 04:30:02;;;;;;;;;;;5.70;99.70;;;;;;5054296;28;19916;-69
2022/01/18 04:32:28;;;;;;;;;;;5.70;99.70;;;;;;5048421;28;20381;-69
2022/01/18 04:34:53;;;;;;;;;;;5.70;99.60;;;;;;5066278;28;19921;-69
2022/01/18 04:37:19;;;;;;;;;;;5.70;99.60;;;;;;5033125;28;20000;-69
2022/01/18 04:39:46;;;;;;;;;;;5.70;99.70;;;;;;5042877;28;20357;-69
2022/01/18 04:50:32;;;;;;;;;;;5.70;99.60;;;;;;5055301;28;20030;-69
2022/01/18 04:52:58;;;;;;;;;;;5.70;99.70;;;;;;5047851;28;20667;-69
2022/01/18 04:55:30;;;;;;;;;;;5.70;99.70;;;;;;5056976;28;20020;-69
2022/01/18 04:57:55;;;;;;;;;;;5.70;99.70;;;;;;5045226;28;19917;-69
2022/01/18 05:00:21;;;;;;;;;;;5.70;99.70;;;;;;5052559;28;20431;-69
2022/01/18 05:02:47;;;;;;;;;;;5.70;99.70;;;;;;5046059;28;20584;-69
2022/01/18 05:05:31;;;;;;;;;;;5.70;99.70;;;;;;5051980;28;19927;-69
2022/01/18 05:08:02;;;;;;;;;;;5.70;99.70;;;;;;5044964;28;20408;-69
2022/01/18 05:10:30;;;;;;;;;;;5.70;99.70;;;;;;5051089;28;19912;-69
2022/01/18 05:12:57;;;;;;;;;;;5.70;99.70;;;;;;5048664;28;19917;-69
2022/01/18 05:23:06;;;;;;;;;;;5.70;99.70;;;;;;5050299;28;19921;-69
2022/01/18 05:25:32;;;;;;;;;;;5.70;99.70;;;;;;5048468;28;19916;-69
2022/01/18 05:27:59;;;;;;;;;;;5.70;99.90;;;;;;5045494;28;19921;-69
2022/01/18 05:30:25;;;;;;;;;;;5.70;99.70;;;;;;5033077;28;20592;-69
2022/01/18 05:32:51;;;;;;;;;;;5.70;99.70;;;;;;5052350;28;20004;-69
2022/01/18 05:35:17;;;;;;;;;;;5.70;99.70;;;;;;5047559;28;20038;-69
2022/01/18 05:37:42;;;;;;;;;;;5.70;99.80;;;;;;5055946;28;19921;-69
2022/01/18 05:40:08;;;;;;;;;;;5.70;99.80;;;;;;5046555;28;20050;-69
2022/01/18 05:42:34;;;;;;;;;;;5.70;99.80;;;;;;5052070;28;19913;-69
2022/01/18 05:44:59;;;;;;;;;;;5.70;99.80;;;;;;5044012;28;19917;-69
2022/01/18 05:47:25;;;;;;;;;;;5.70;99.80;;;;;;5053779;28;19924;-69
2022/01/18 05:49:50;;;;;;;;;;;5.70;99.80;;;;;;5046973;28;19916;-69
2022/01/18 05:52:16;;;;;;;;;;;5.70;99.80;;;;;;5049595;28;20035;-69
2022/01/18 05:54:41;;;;;;;;;;;5.70;99.80;;;;;;5052580;28;20054;-69
2022/01/18 05:57:07;;;;;;;;;;;5.70;99.80;;;;;;5048862;28;20011;-69
2022/01/18 05:59:38;;;;;;;;;;;5.70;99.90;;;;;;5048069;28;19920;-69
2022/01/18 06:02:15;;;;;;;;;;;5.70;99.80;;;;;;5049116;28;19909;-69
2022/01/18 06:07:24;;;;;;;;;;;5.70;99.80;;;;;;5050890;28;19919;-69
2022/01/18 06:09:50;;;;;;;;;;;5.70;99.80;;;;;;5052641;28;19920;-69
2022/01/18 06:12:16;;;;;;;;;;;5.70;99.80;;;;;;5048566;28;20596;-69
2022/01/18 06:14:41;;;;;;;;;;;5.70;99.80;;;;;;5044689;28;19917;-69
2022/01/18 06:17:07;;;;;;;;;;;5.70;99.80;;;;;;5048658;28;19913;-69
2022/01/18 06:19:32;;;;;;;;;;;5.70;99.80;;;;;;5033913;28;19920;-69
2022/01/18 06:21:58;;;;;;;;;;;5.70;99.80;;;;;;5046588;28;20043;-69
2022/01/18 06:24:23;;;;;;;;;;;5.70;99.80;;;;;;5065666;28;19913;-69
2022/01/18 06:26:49;;;;;;;;;;;5.70;99.80;;;;;;5045583;28;19928;-69
2022/01/18 06:29:15;;;;;;;;;;;5.70;99.90;;;;;;5049175;28;20254;-70
2022/01/18 06:31:40;;;;;;;;;;;5.70;99.80;;;;;;5030964;28;19947;-69
2022/01/18 06:34:06;;;;;;;;;;;5.70;99.80;;;;;;5054570;28;19924;-69
2022/01/18 06:36:31;;;;;;;;;;;5.70;99.90;;;;;;5047214;28;20266;-69
2022/01/18 06:38:57;;;;;;;;;;;5.70;99.90;;;;;;5048791;28;19917;-69
2022/01/18 06:41:22;;;;;;;;;;;5.70;99.90;;;;;;5047345;28;19917;-69
2022/01/18 06:43:48;;;;;;;;;;;5.70;99.80;;;;;;5051495;28;19924;-69
2022/01/18 06:46:13;;;;;;;;;;;5.70;99.90;;;;;;5054047;28;19917;-69
2022/01/18 06:48:39;;;;;;;;;;;5.70;99.80;;;;;;5049375;28;19996;-69
2022/01/18 06:51:05;;;;;;;;;;;5.70;99.80;;;;;;5047563;28;19952;-69
2022/01/18 06:53:33;;;;;;;;;;;5.70;99.80;;;;;;5030316;28;19924;-69
2022/01/18 06:55:58;;;;;;;;;;;5.70;99.80;;;;;;5053917;28;19973;-70
2022/01/18 06:58:24;;;;;;;;;;;5.70;99.80;;;;;;5046778;28;19916;-69
2022/01/18 07:00:50;;;;;;;;;;;5.70;99.80;;;;;;5061746;28;19912;-69
2022/01/18 07:03:17;;;;;;;;;;;5.70;99.80;;;;;;5028665;28;20447;-69
2022/01/18 07:05:42;;;;;;;;;;;5.70;99.80;;;;;;5050422;28;19917;-69
2022/01/18 07:08:08;;;;;;;;;;;5.70;99.80;;;;;;5044228;28;19973;-69
2022/01/18 07:10:34;;;;;;;;;;;5.70;99.80;;;;;;5049077;28;20030;-69
2022/01/18 07:13:01;;;;;;;;;;;5.70;99.80;;;;;;5049540;28;19921;-69
2022/01/18 07:15:26;;;;;;;;;;;5.70;99.80;;;;;;5049395;28;20532;-69
2022/01/18 07:17:52;;;;;;;;;;;5.70;99.80;;;;;;5046786;28;20011;-69
2022/01/18 07:20:17;;;;;;;;;;;5.70;99.80;;;;;;5049618;28;19918;-69
2022/01/18 07:22:43;;;;;;;;;;;5.70;99.80;;;;;;5051612;28;19939;-69
2022/01/18 07:25:11;;;;;;;;;;;5.70;99.80;;;;;;5030988;28;19923;-69
2022/01/18 07:27:37;;;;;;;;;;;5.70;99.80;;;;;;5053702;28;19924;-69
2022/01/18 07:30:03;;;;;;;;;;;5.70;99.80;;;;;;5047763;28;19916;-69
2022/01/18 07:32:28;;;;;;;;;;;5.70;99.80;;;;;;5050426;28;20007;-69
2022/01/18 07:34:55;;;;;;;;;;;5.70;99.80;;;;;;5048066;28;20530;-69
2022/01/18 07:37:22;;;;;;;;;;;5.70;99.80;;;;;;5049942;28;20629;-69
2022/01/18 07:39:49;;;;;;;;;;;5.60;99.80;;;;;;5043533;28;20024;-69
2022/01/18 07:42:15;;;;;;;;;;;5.70;99.80;;;;;;5053035;28;19912;-69
2022/01/18 07:44:40;;;;;;;;;;;5.70;99.80;;;;;;5046586;28;20019;-69
2022/01/18 07:47:06;;;;;;;;;;;5.70;99.80;;;;;;5046010;28;19996;-69
2022/01/18 07:49:31;;;;;;;;;;;5.70;99.80;;;;;;5044970;28;19916;-69
2022/01/18 07:51:57;;;;;;;;;;;5.70;99.80;;;;;;5047299;28;19913;-69
2022/01/18 07:54:22;;;;;;;;;;;5.70;99.80;;;;;;5047966;28;19919;-69
2022/01/18 07:56:48;;;;;;;;;;;5.70;99.80;;;;;;5051819;28;20337;-69
2022/01/18 07:59:13;;;;;;;;;;;5.70;99.80;;;;;;5054588;28;19962;-69
2022/01/18 08:01:41;;;;;;;;;;;5.70;99.80;;;;;;5049149;28;19992;-69
2022/01/18 08:04:07;;;;;;;;;;;5.70;99.80;;;;;;5047500;28;19921;-69
2022/01/18 08:06:32;;;;;;;;;;;5.70;99.80;;;;;;5049470;28;19924;-69
2022/01/18 08:08:58;;;;;;;;;;;5.70;99.80;;;;;;5068319;28;19913;-69
2022/01/18 08:11:23;;;;;;;;;;;5.70;99.80;;;;;;5048894;28;19921;-69
2022/01/18 08:13:50;;;;;;;;;;;5.70;99.80;;;;;;5051353;28;19935;-69
2022/01/18 08:16:46;;;;;;;;;;;;;;;;;;;;;
2022/01/18 08:18:49;;;;;;;;;;;5.70;99.70;;;;;;5050846;28;20101;-69
2022/01/18 08:21:15;;;;;;;;;;;5.70;99.90;;;;;;5045337;28;19921;-69
2022/01/18 08:23:40;;;;;;;;;;;5.70;99.70;;;;;;5051740;28;20377;-69
2022/01/18 08:26:06;;;;;;;;;;;5.70;99.80;;;;;;5049201;28;19925;-69
2022/01/18 08:28:31;;;;;;;;;;;5.70;99.80;;;;;;5049587;28;19917;-69
2022/01/18 08:30:57;;;;;;;;;;;5.70;99.80;;;;;;5044300;28;20364;-69
2022/01/18 08:33:24;;;;;;;;;;;5.80;99.80;;;;;;5046991;28;19932;-69
2022/01/18 08:35:50;;;;;;;;;;;5.70;99.80;;;;;;5050353;28;19917;-69
2022/01/18 08:38:15;;;;;;;;;;;5.80;99.80;;;;;;5050048;28;19912;-69
2022/01/18 08:40:41;;;;;;;;;;;5.70;99.80;;;;;;5050918;28;19916;-69
2022/01/18 08:43:06;;;;;;;;;;;5.80;99.80;;;;;;5050071;28;19921;-69
2022/01/18 08:45:32;;;;;;;;;;;5.80;99.80;;;;;;5051323;28;19920;-69
2022/01/18 08:47:57;;;;;;;;;;;5.80;99.90;;;;;;5049165;28;19921;-69
2022/01/18 08:50:23;;;;;;;;;;;5.80;99.80;;;;;;5050105;28;19991;-69
2022/01/18 08:52:51;;;;;;;;;;;5.80;99.80;;;;;;5047520;28;20467;-69
2022/01/18 08:55:17;;;;;;;;;;;5.80;99.80;;;;;;5065973;28;19916;-69
2022/01/18 08:57:42;;;;;;;;;;;5.90;99.80;;;;;;5049964;28;19912;-69
2022/01/18 09:00:10;;;;;;;;;;;5.80;99.80;;;;;;5034548;28;19915;-69
2022/01/18 09:02:36;;;;;;;;;;;5.90;99.80;;;;;;5047461;28;19955;-69
2022/01/18 09:05:01;;;;;;;;;;;5.90;99.80;;;;;;5034276;28;19952;-69
2022/01/18 09:07:27;;;;;;;;;;;5.90;99.80;;;;;;5047723;28;19944;-69
2022/01/18 09:10:02;;;;;;;;;;;5.90;99.80;;;;;;5049652;28;19913;-69
2022/01/18 09:12:28;;;;;;;;;;;5.90;99.80;;;;;;5061629;28;19913;-69
2022/01/18 09:14:53;;;;;;;;;;;5.90;99.80;;;;;;5049352;28;20640;-69
2022/01/18 09:17:19;;;;;;;;;;;5.90;99.70;;;;;;5056106;28;19918;-69
2022/01/18 09:19:44;;;;;;;;;;;5.90;99.70;;;;;;5049144;28;19928;-69
2022/01/18 09:22:10;;;;;;;;;;;6.00;99.80;;;;;;5049328;28;20277;-69
2022/01/18 09:24:35;;;;;;;;;;;6.00;99.80;;;;;;5049264;28;19924;-69
2022/01/18 09:27:01;;;;;;;;;;;6.00;99.70;;;;;;5050133;28;19913;-69
2022/01/18 09:29:27;;;;;;;;;;;6.00;99.70;;;;;;5049029;28;19921;-69
2022/01/18 09:31:53;;;;;;;;;;;6.00;99.70;;;;;;5049629;28;20281;-69
2022/01/18 09:34:18;;;;;;;;;;;6.10;99.70;;;;;;5052576;28;19913;-69
2022/01/18 09:36:44;;;;;;;;;;;6.10;99.90;;;;;;5068559;28;19916;-69
2022/01/18 09:39:10;;;;;;;;;;;6.10;99.60;;;;;;5046972;28;19955;-69
2022/01/18 09:41:39;;;;;;;;;;;6.10;99.60;;;;;;5033648;28;20016;-69
2022/01/18 09:44:06;;;;;;;;;;;6.10;99.50;;;;;;5048087;28;19947;-69
2022/01/18 09:46:31;;;;;;;;;;;6.20;99.50;;;;;;5049348;28;19966;-69
2022/01/18 09:48:57;;;;;;;;;;;6.20;99.50;;;;;;5046393;28;20569;-69
2022/01/18 09:51:23;;;;;;;;;;;6.20;99.40;;;;;;5048669;28;20012;-69
2022/01/18 09:53:49;;;;;;;;;;;6.20;99.40;;;;;;5032992;28;20024;-69
2022/01/18 09:56:15;;;;;;;;;;;6.30;99.50;;;;;;5048381;28;19916;-69
2022/01/18 09:58:41;;;;;;;;;;;6.20;99.40;;;;;;5029714;28;19924;-69
2022/01/18 10:01:07;;;;;;;;;;;6.30;99.40;;;;;;5047185;28;19917;-69
2022/01/18 10:03:33;;;;;;;;;;;6.30;99.30;;;;;;5049162;28;19927;-69
2022/01/18 10:05:58;;;;;;;;;;;6.30;99.30;;;;;;5030399;28;19921;-69
2022/01/18 10:08:24;;;;;;;;;;;6.40;99.30;;;;;;5047262;28;19913;-69
2022/01/18 10:10:51;;;;;;;;;;;6.30;99.30;;;;;;5049093;28;19970;-69
2022/01/18 10:13:18;;;;;;;;;;;6.40;99.20;;;;;;5031334;28;19912;-69
2022/01/18 10:16:16;;;;;;;;;;;6.40;99.10;;;;;;5045362;28;20012;-69
2022/01/18 10:18:47;;;;;;;;;;;6.40;99.20;;;;;;4997243;28;19912;-69
2022/01/18 10:21:22;;;;;;;;;;;6.50;99.40;;;;;;5048469;28;19963;-69
2022/01/18 10:23:51;;;;;;;;;;;6.50;99.40;;;;;;5048428;28;19951;-69
2022/01/18 10:26:21;;;;;;;;;;;6.50;99.30;;;;;;5060385;28;19916;-69
2022/01/18 10:28:47;;;;;;;;;;;6.50;99.20;;;;;;5047927;28;19913;-69
2022/01/18 10:31:24;;;;;;;;;;;6.50;99.10;;;;;;5031284;28;19928;-69
2022/01/18 10:34:08;;;;;;;;;;;6.50;99.20;;;;;;5047835;28;19921;-69
2022/01/18 10:36:34;;;;;;;;;;;6.60;99.10;;;;;;5043444;28;19920;-69
2022/01/18 10:39:02;;;;;;;;;;;6.60;99.00;;;;;;5048698;28;20612;-69
2022/01/18 10:41:30;;;;;;;;;;;6.60;99.00;;;;;;5046343;28;19966;-69
2022/01/18 10:44:06;;;;;;;;;;;6.60;99.00;;;;;;5048286;28;19920;-69
2022/01/18 10:46:52;;;;;;;;;;;6.70;99.00;;;;;;5043654;28;19928;-69
2022/01/18 10:49:28;;;;;;;;;;;6.70;99.00;;;;;;5047248;28;19970;-69
2022/01/18 10:52:09;;;;;;;;;;;6.70;99.00;;;;;;5044141;28;19912;-69
2022/01/18 10:54:37;;;;;;;;;;;6.70;99.00;;;;;;5047261;28;19932;-69
2022/01/18 10:57:03;;;;;;;;;;;6.80;98.90;;;;;;5044724;28;19913;-69
2022/01/18 10:59:29;;;;;;;;;;;6.80;98.80;;;;;;5045485;28;19916;-69
2022/01/18 11:02:09;;;;;;;;;;;6.80;98.80;;;;;;5050384;28;19913;-69
2022/01/18 11:04:35;;;;;;;;;;;6.80;98.80;;;;;;5048356;28;20362;-69
2022/01/18 11:07:03;;;;;;;;;;;6.90;99.00;;;;;;5046979;28;19934;-69
2022/01/18 11:09:29;;;;;;;;;;;6.90;98.80;;;;;;5046100;28;20612;-69
2022/01/18 11:11:54;;;;;;;;;;;6.90;98.70;;;;;;5046026;28;19920;-69
2022/01/18 11:14:21;;;;;;;;;;;7.00;98.70;;;;;;5046829;28;19917;-69
2022/01/18 11:16:48;;;;;;;;;;;7.00;98.70;;;;;;5047743;28;19916;-69
2022/01/18 11:19:37;;;;;;;;;;;7.00;98.60;;;;;;5047265;28;19987;-69
2022/01/18 11:22:10;;;;;;;;;;;7.10;98.60;;;;;;5045460;28;19917;-69
2022/01/18 11:24:37;;;;;;;;;;;7.10;98.60;;;;;;5046738;28;20000;-69
2022/01/18 11:27:06;;;;;;;;;;;7.10;98.50;;;;;;5045480;28;19924;-69
2022/01/18 11:29:32;;;;;;;;;;;7.10;98.40;;;;;;5048372;28;19917;-69
2022/01/18 11:31:58;;;;;;;;;;;7.20;98.40;;;;;;5049132;28;19999;-69
2022/01/18 11:34:24;;;;;;;;;;;7.30;98.40;;;;;;5052824;28;20011;-69
2022/01/18 11:36:50;;;;;;;;;;;7.30;98.30;;;;;;5049969;28;19913;-69
2022/01/18 11:39:17;;;;;;;;;;;7.30;98.30;;;;;;5054331;28;19984;-69
2022/01/18 11:41:43;;;;;;;;;;;7.30;98.40;;;;;;5051270;28;19973;-69
2022/01/18 11:44:15;;;;;;;;;;;7.40;98.30;;;;;;5046567;28;20390;-69
2022/01/18 11:46:46;;;;;;;;;;;7.40;98.20;;;;;;5047708;28;19956;-69
2022/01/18 11:49:18;;;;;;;;;;;7.40;98.30;;;;;;5051972;28;19917;-69
2022/01/18 11:52:12;;;;;;;;;;;7.40;98.40;;;;;;5049764;28;19955;-69
2022/01/18 11:54:57;;;;;;;;;;;7.40;98.20;;;;;;5020966;28;19919;-69
2022/01/18 11:57:23;;;;;;;;;;;7.40;98.40;;;;;;5034121;28;19944;-69
2022/01/18 11:59:50;;;;;;;;;;;7.50;98.40;;;;;;5054001;28;20457;-69
2022/01/18 12:02:48;;;;;;;;;;;7.50;98.50;;;;;;5052298;28;19921;-69
2022/01/18 12:05:16;;;;;;;;;;;7.50;98.40;;;;;;5040177;28;19921;-69
2022/01/18 12:07:44;;;;;;;;;;;7.50;98.40;;;;;;5034096;28;20269;-69
2022/01/18 12:10:21;;;;;;;;;;;7.50;98.30;;;;;;5050340;28;19920;-69
2022/01/18 12:12:51;;;;;;;;;;;7.50;98.30;;;;;;5049948;28;20262;-69
2022/01/18 12:15:19;;;;;;;;;;;7.60;98.40;;;;;;5047971;28;19924;-69
2022/01/18 12:17:45;;;;;;;;;;;7.60;98.30;;;;;;5051121;28;19935;-69
2022/01/18 12:20:31;;;;;;;;;;;7.60;98.30;;;;;;5053188;28;19967;-69
2022/01/18 12:23:00;;;;;;;;;;;7.60;98.30;;;;;;5050240;28;20528;-69
2022/01/18 12:25:27;;;;;;;;;;;7.60;98.40;;;;;;5047162;28;20266;-69
2022/01/18 12:27:55;;;;;;;;;;;7.60;98.40;;;;;;5032187;28;20550;-69
2022/01/18 12:30:53;;;;;;;;;;;7.60;98.40;;;;;;5048058;28;19967;-69
2022/01/18 12:33:19;;;;;;;;;;;7.60;98.40;;;;;;5050341;28;20443;-69
2022/01/18 12:35:45;;;;;;;;;;;7.70;98.40;;;;;;5039117;28;19952;-69
2022/01/18 12:38:20;;;;;;;;;;;7.70;98.30;;;;;;5051448;28;20657;-69
2022/01/18 12:40:46;;;;;;;;;;;7.60;98.30;;;;;;5048832;28;20016;-69
2022/01/18 12:45:39;;;;;;;;;;;7.60;98.50;;;;;;5048906;28;19966;-69
2022/01/18 12:48:05;;;;;;;;;;;7.60;98.50;;;;;;5045106;28;19927;-69
2022/01/18 12:50:35;;;;;;;;;;;7.60;98.50;;;;;;5049387;28;19913;-69
2022/01/18 12:53:05;;;;;;;;;;;7.60;98.70;;;;;;5048187;28;19955;-69
2022/01/18 12:55:31;;;;;;;;;;;7.60;98.60;;;;;;5047493;28;19912;-69
2022/01/18 12:58:01;;;;;;;;;;;7.60;98.60;;;;;;5054879;28;20380;-69
2022/01/18 13:00:26;;;;;;;;;;;7.60;98.60;;;;;;5047526;28;19913;-69
2022/01/18 13:02:56;;;;;;;;;;;7.60;98.60;;;;;;5060116;28;19923;-69
2022/01/18 13:05:31;;;;;;;;;;;7.60;98.60;;;;;;5029843;28;20370;-69
2022/01/18 13:07:57;;;;;;;;;;;7.60;98.60;;;;;;5050669;28;20015;-69
2022/01/18 13:10:39;;;;;;;;;;;7.60;98.70;;;;;;5047982;28;19917;-69
2022/01/18 13:13:05;;;;;;;;;;;7.60;98.70;;;;;;5051285;28;19913;-69
2022/01/18 13:15:47;;;;;;;;;;;7.60;98.70;;;;;;5031598;28;19990;-69
2022/01/18 13:26:37;;;;;;;;;;;7.60;98.60;;;;;;5005882;28;20498;-69
2022/01/18 13:29:09;;;;;;;;;;;7.60;98.60;;;;;;5056072;28;19939;-69
2022/01/18 13:31:35;;;;;;;;;;;7.60;98.60;;;;;;5047494;28;20376;-69
2022/01/18 13:34:01;;;;;;;;;;;7.60;98.70;;;;;;5050423;28;19913;-69
2022/01/18 13:36:33;;;;;;;;;;;7.60;98.70;;;;;;5047283;28;19920;-69
2022/01/18 13:39:18;;;;;;;;;;;7.60;99.00;;;;;;5049082;28;19912;-69
2022/01/18 13:41:43;;;;;;;;;;;7.60;98.80;;;;;;5046737;28;19917;-69
2022/01/18 13:44:09;;;;;;;;;;;7.60;98.80;;;;;;5034016;28;19924;-69
2022/01/18 13:46:34;;;;;;;;;;;7.60;98.80;;;;;;5047098;28;19916;-69
2022/01/18 13:49:04;;;;;;;;;;;7.50;98.80;;;;;;5047517;28;19913;-69
2022/01/18 13:51:29;;;;;;;;;;;7.60;98.90;;;;;;5050917;28;19923;-69
2022/01/18 13:53:59;;;;;;;;;;;7.50;98.90;;;;;;5047571;28;19917;-69
2022/01/18 13:56:26;;;;;;;;;;;7.50;98.90;;;;;;5049965;28;20513;-69
2022/01/18 13:59:02;;;;;;;;;;;7.50;99.00;;;;;;5047143;28;19991;-69
2022/01/18 14:01:32;;;;;;;;;;;7.50;99.00;;;;;;5047185;28;19925;-69
2022/01/18 14:04:00;;;;;;;;;;;7.50;99.00;;;;;;5045832;28;20666;-70
2022/01/18 14:06:36;;;;;;;;;;;7.50;99.00;;;;;;5045899;28;20438;-70
2022/01/18 14:09:03;;;;;;;;;;;7.50;99.00;;;;;;5028664;28;20392;-69
2022/01/18 14:11:31;;;;;;;;;;;7.50;99.00;;;;;;5048865;28;19917;-69
2022/01/18 14:13:57;;;;;;;;;;;7.50;99.00;;;;;;5029453;28;20382;-70
2022/01/18 14:16:24;;;;;;;;;;;7.50;99.10;;;;;;5050551;28;19920;-70
2022/01/18 14:19:02;;;;;;;;;;;7.50;99.10;;;;;;5062082;28;20293;-70
2022/01/18 14:21:32;;;;;;;;;;;7.50;99.20;;;;;;5061981;28;19927;-69
2022/01/18 14:24:17;;;;;;;;;;;7.40;99.10;;;;;;5044704;28;19920;-70
2022/01/18 14:26:52;;;;;;;;;;;7.50;99.20;;;;;;5046946;28;19928;-69
2022/01/18 14:29:27;;;;;;;;;;;7.40;99.20;;;;;;5061474;28;20384;-69
2022/01/18 14:31:56;;;;;;;;;;;7.40;99.10;;;;;;5031887;28;19917;-70
2022/01/18 14:34:28;;;;;;;;;;;7.40;99.10;;;;;;5044603;28;20055;-69
2022/01/18 14:36:55;;;;;;;;;;;7.40;99.10;;;;;;5048515;28;20285;-69
2022/01/18 14:39:20;;;;;;;;;;;7.40;99.10;;;;;;5030430;28;19920;-69
2022/01/18 14:41:49;;;;;;;;;;;7.40;99.10;;;;;;5053661;28;19917;-69
2022/01/18 14:44:24;;;;;;;;;;;7.40;99.10;;;;;;5042756;28;19924;-69
2022/01/18 14:47:24;;;;;;;;;;;7.40;99.10;;;;;;5046277;28;19947;-69
2022/01/18 14:49:44;;;;;;;;;;;7.40;99.20;;;;;;5044601;28;19913;-70
2022/01/18 14:52:09;;;;;;;;;;;7.40;99.20;;;;;;5050200;28;19924;-70
2022/01/18 14:54:35;;;;;;;;;;;7.40;99.30;;;;;;5027424;28;20433;-70
2022/01/18 14:57:00;;;;;;;;;;;7.40;99.30;;;;;;5049219;28;19920;-69
2022/01/18 14:59:26;;;;;;;;;;;7.30;99.40;;;;;;5045575;28;19956;-69
2022/01/18 15:01:52;;;;;;;;;;;7.30;99.40;;;;;;5046901;28;19924;-69
2022/01/18 15:04:18;;;;;;;;;;;7.30;99.30;;;;;;5027682;28;19964;-70
2022/01/18 15:06:43;;;;;;;;;;;7.30;99.30;;;;;;5046068;28;19955;-69
2022/01/18 15:09:09;;;;;;;;;;;7.30;99.30;;;;;;5046591;28;19917;-69
2022/01/18 15:11:36;;;;;;;;;;;7.30;99.30;;;;;;5043760;28;20004;-70
2022/01/18 15:14:03;;;;;;;;;;;7.30;99.40;;;;;;5047712;28;19912;-69
2022/01/18 15:16:28;;;;;;;;;;;7.20;99.30;;;;;;5045087;28;19928;-69
2022/01/18 15:18:54;;;;;;;;;;;7.20;99.30;;;;;;5051651;28;19917;-69
2022/01/18 15:21:19;;;;;;;;;;;7.20;99.30;;;;;;5043108;28;19916;-69
2022/01/18 15:23:45;;;;;;;;;;;7.20;99.30;;;;;;5047045;28;19909;-69
2022/01/18 15:26:12;;;;;;;;;;;7.20;99.30;;;;;;5045457;28;19932;-69
2022/01/18 15:28:38;;;;;;;;;;;7.20;99.30;;;;;;5049863;28;19917;-70
2022/01/18 15:31:04;;;;;;;;;;;7.20;99.30;;;;;;5045424;28;22984;-69
2022/01/18 15:33:29;;;;;;;;;;;7.20;99.30;;;;;;5048494;28;19915;-70
2022/01/18 15:35:55;;;;;;;;;;;7.20;99.40;;;;;;5048151;28;20007;-69
2022/01/18 15:38:20;;;;;;;;;;;7.20;99.40;;;;;;5027990;28;19940;-69
2022/01/18 15:40:46;;;;;;;;;;;7.20;99.40;;;;;;5046466;28;19917;-69
2022/01/18 15:43:12;;;;;;;;;;;7.10;99.40;;;;;;5044446;28;20503;-69
2022/01/18 15:45:37;;;;;;;;;;;7.10;99.50;;;;;;5044342;28;20352;-69
2022/01/18 15:48:03;;;;;;;;;;;7.10;99.40;;;;;;5044572;28;19913;-69
2022/01/18 15:50:29;;;;;;;;;;;7.10;99.50;;;;;;5032333;28;19978;-69
2022/01/18 15:52:55;;;;;;;;;;;7.10;99.50;;;;;;5045164;28;20197;-70
2022/01/18 15:55:20;;;;;;;;;;;7.10;99.50;;;;;;5050053;28;20369;-69